createdAt,value
2023-01-09T00:01:52.122Z,60.05
2023-01-09T00:06:54.341Z,51.73
2023-01-09T00:11:56.338Z,57.20
2023-01-09T00:16:58.393Z,60.88
2023-01-09T00:22:00.652Z,55.40
2023-01-09T00:27:02.682Z,51.67
2023-01-09T00:32:04.683Z,61.13
2023-01-09T00:37:11.857Z,57.88
2023-01-09T00:42:21.795Z,78.70
2023-01-09T00:47:38.425Z,63.08
2023-01-09T00:52:41.040Z,61.50
2023-01-09T00:57:43.245Z,47.92
2023-01-09T01:02:45.481Z,50.92
2023-01-09T01:07:47.494Z,47.45
2023-01-09T01:12:50.474Z,47.60
2023-01-09T01:17:52.394Z,45.35
2023-01-09T01:22:54.245Z,43.28
2023-01-09T01:27:56.134Z,41.55
2023-01-09T01:32:58.099Z,43.45
2023-01-09T01:38:00.357Z,45.10
2023-01-09T01:43:02.515Z,45.40
2023-01-09T01:48:09.533Z,45.95
2023-01-09T01:53:28.967Z,46.90
2023-01-09T01:58:31.698Z,45.85
2023-01-09T02:03:35.165Z,43.93
2023-01-09T02:08:37.075Z,43.15
2023-01-09T02:13:40.428Z,48.72
2023-01-09T02:18:58.182Z,41.88
2023-01-09T02:24:23.279Z,38.53
2023-01-09T02:30:02.607Z,41.60
2023-01-09T02:35:27.796Z,40.60
2023-01-09T02:40:36.655Z,40.75
2023-01-09T02:45:38.832Z,42.97
2023-01-09T02:51:12.615Z,37.75
2023-01-09T02:56:40.010Z,43.28
2023-01-09T03:01:48.164Z,41.08
2023-01-09T03:07:09.766Z,38.47
2023-01-09T03:12:20.419Z,37.78
2023-01-09T03:17:36.368Z,38.92
2023-01-09T03:22:40.551Z,38.60
2023-01-09T03:27:42.604Z,39.63
2023-01-09T03:32:44.479Z,42.72
2023-01-09T03:37:46.406Z,43.83
2023-01-09T03:42:48.530Z,40.97
2023-01-09T03:47:52.813Z,45.22
2023-01-09T03:52:55.102Z,44.67
2023-01-09T03:57:57.149Z,45.95
2023-01-09T04:02:58.975Z,44.05
2023-01-09T04:08:01.298Z,51.72
2023-01-09T04:13:03.390Z,38.22
2023-01-09T04:18:05.547Z,44.30
2023-01-09T04:23:07.580Z,46.50
2023-01-09T04:28:09.684Z,44.97
2023-01-09T04:33:11.570Z,39.90
2023-01-09T04:38:13.798Z,41.92
2023-01-09T04:43:15.769Z,43.80
2023-01-09T04:48:17.734Z,37.50
2023-01-09T04:53:19.832Z,38.13
2023-01-09T04:58:21.845Z,37.05
2023-01-09T05:03:23.748Z,38.88
2023-01-09T05:08:25.607Z,36.72
2023-01-09T05:13:28.139Z,32.85
2023-01-09T05:18:30.110Z,35.95
2023-01-09T05:23:32.047Z,32.45
2023-01-09T05:28:33.965Z,36.30
2023-01-09T05:33:35.824Z,35.38
2023-01-09T05:38:38.463Z,36.78
2023-01-09T05:43:40.599Z,30.38
2023-01-09T05:48:42.468Z,30.45
2023-01-09T05:53:44.307Z,34.95
2023-01-09T05:58:46.427Z,34.08
2023-01-09T06:03:48.283Z,35.33
2023-01-09T06:08:50.173Z,38.40
2023-01-09T06:13:52.088Z,37.45
2023-01-09T06:18:54.314Z,35.50
2023-01-09T06:23:56.764Z,36.88
2023-01-09T06:29:00.804Z,32.35
2023-01-09T06:34:02.776Z,34.92
2023-01-09T06:39:04.679Z,40.50
2023-01-09T06:44:06.579Z,34.13
2023-01-09T06:49:10.047Z,32.95
2023-01-09T06:54:12.018Z,34.67
2023-01-09T06:59:14.383Z,41.30
2023-01-09T07:04:17.723Z,40.38
2023-01-09T07:09:19.767Z,43.47
2023-01-09T07:14:21.661Z,37.42
2023-01-09T07:19:23.741Z,35.85
2023-01-09T07:24:25.592Z,39.30
2023-01-09T07:29:27.471Z,36.47
2023-01-09T07:34:29.744Z,70.53
2023-01-09T07:39:31.624Z,78.22
2023-01-09T07:44:33.775Z,65.72
2023-01-09T07:49:35.644Z,71.78
2023-01-09T07:54:37.509Z,75.40
2023-01-09T07:59:39.772Z,76.95
2023-01-09T08:04:41.666Z,91.03
2023-01-09T08:09:43.559Z,56.47
2023-01-09T08:14:45.508Z,52.88
2023-01-09T08:19:47.360Z,37.28
2023-01-09T08:24:49.530Z,38.10
2023-01-09T08:29:51.387Z,31.80
2023-01-09T08:34:53.864Z,36.65
2023-01-09T08:39:56.484Z,60.38
2023-01-09T08:45:17.122Z,62.72
2023-01-09T08:50:19.061Z,45.50
2023-01-09T08:55:20.942Z,51.05
2023-01-09T09:00:24.409Z,48.05
2023-01-09T09:05:28.286Z,38.40
2023-01-09T09:10:30.793Z,44.50
2023-01-09T09:15:34.293Z,40.08
2023-01-09T09:20:39.312Z,54.15
2023-01-09T09:25:41.284Z,43.58
2023-01-09T09:30:43.208Z,52.03
2023-01-09T09:35:45.373Z,38.97
2023-01-09T09:41:06.182Z,43.80
2023-01-09T09:46:17.343Z,66.13
2023-01-09T09:51:52.739Z,39.88
2023-01-09T09:56:58.107Z,33.53
2023-01-09T10:02:09.535Z,35.05
2023-01-09T10:07:23.739Z,33.40
2023-01-09T10:12:45.502Z,32.83
2023-01-09T10:17:59.798Z,34.08
2023-01-09T10:23:13.956Z,37.53
2023-01-09T10:28:37.614Z,32.50
2023-01-09T10:34:03.771Z,49.00
2023-01-09T10:39:10.462Z,62.38
2023-01-09T10:44:33.203Z,67.57
2023-01-09T10:49:36.959Z,61.03
2023-01-09T10:59:48.060Z,51.47
2023-01-09T11:04:50.585Z,34.28
2023-01-09T11:09:59.981Z,35.50
2023-01-09T11:15:19.286Z,35.33
2023-01-09T11:20:24.045Z,37.63
2023-01-09T11:25:27.956Z,36.65
2023-01-09T11:30:31.499Z,39.22
2023-01-09T11:35:35.156Z,39.88
2023-01-09T11:46:00.728Z,49.60
2023-01-09T11:51:21.366Z,63.85
2023-01-09T11:56:23.978Z,50.00
2023-01-09T12:01:44.947Z,38.42
2023-01-09T12:06:54.290Z,36.80
2023-01-09T12:12:18.477Z,36.70
2023-01-09T12:17:56.034Z,39.95
2023-01-09T12:23:10.120Z,35.33
2023-01-09T12:28:33.236Z,29.70
2023-01-09T12:33:58.411Z,35.70
2023-01-09T12:39:09.090Z,36.05
2023-01-09T12:44:35.661Z,42.60
2023-01-09T12:49:48.449Z,39.42
2023-01-09T12:55:05.943Z,32.65
2023-01-09T13:00:30.725Z,35.03
2023-01-09T13:05:40.336Z,38.92
2023-01-09T13:10:47.458Z,42.63
2023-01-09T13:15:54.785Z,57.55
2023-01-09T13:20:57.327Z,40.33
2023-01-09T13:26:08.607Z,35.65
2023-01-09T13:31:38.643Z,40.40
2023-01-09T13:36:56.101Z,41.08
2023-01-09T13:42:19.904Z,36.38
2023-01-09T13:47:21.923Z,32.63
2023-01-09T13:52:40.342Z,37.53
2023-01-09T13:58:13.723Z,49.15
2023-01-09T14:03:32.991Z,43.20
2023-01-09T14:08:35.351Z,45.63
2023-01-09T14:13:37.397Z,41.47
2023-01-09T14:19:00.452Z,40.00
2023-01-09T14:24:07.328Z,75.03
2023-01-09T14:29:28.321Z,47.72
2023-01-09T14:34:37.372Z,40.33
2023-01-09T14:39:42.931Z,41.20
2023-01-09T14:44:55.824Z,50.20
2023-01-09T14:50:15.773Z,55.13
2023-01-09T14:55:26.726Z,57.78
2023-01-09T15:00:28.872Z,69.35
2023-01-09T15:05:31.712Z,76.00
2023-01-09T15:10:37.509Z,60.20
2023-01-09T15:15:45.328Z,49.55
2023-01-09T15:20:53.422Z,51.03
2023-01-09T15:25:56.720Z,51.20
2023-01-09T15:31:11.545Z,49.58
2023-01-09T15:36:18.374Z,56.50
2023-01-09T15:41:44.788Z,58.08
2023-01-09T15:46:50.025Z,46.78
2023-01-09T15:51:53.411Z,64.50
2023-01-09T15:57:09.943Z,52.60
2023-01-09T16:02:32.739Z,59.85
2023-01-09T16:07:34.888Z,53.03
2023-01-09T16:12:36.794Z,49.45
2023-01-09T16:17:39.769Z,47.05
2023-01-09T16:22:56.745Z,45.53
2023-01-09T16:28:21.250Z,55.67
2023-01-09T16:33:26.951Z,45.67
2023-01-09T16:38:29.058Z,42.22
2023-01-09T16:43:31.167Z,39.20
2023-01-09T16:48:33.954Z,42.72
2023-01-09T16:53:35.879Z,50.70
2023-01-09T16:58:37.927Z,80.82
2023-01-09T17:03:43.609Z,74.32
2023-01-09T17:08:46.924Z,64.63
2023-01-09T17:13:49.212Z,49.55
2023-01-09T17:18:51.465Z,64.65
2023-01-09T17:24:13.700Z,52.70
2023-01-09T17:29:15.654Z,51.40
2023-01-09T17:34:17.643Z,278.75
2023-01-09T17:39:19.656Z,102.43
2023-01-09T17:44:21.562Z,56.20
2023-01-09T17:49:23.855Z,164.00
2023-01-09T17:54:25.741Z,75.43
2023-01-09T17:59:29.296Z,67.28
2023-01-09T18:04:31.129Z,91.55
2023-01-09T18:09:33.067Z,94.13
2023-01-09T18:14:35.507Z,150.15
2023-01-09T18:19:37.642Z,94.35
2023-01-09T18:24:39.675Z,129.98
2023-01-09T18:29:41.548Z,107.32
2023-01-09T18:34:43.791Z,100.30
2023-01-09T18:39:45.833Z,129.15
2023-01-09T18:44:47.721Z,132.93
2023-01-09T18:49:49.920Z,180.02
2023-01-09T18:54:51.820Z,70.75
2023-01-09T18:59:53.762Z,66.32
2023-01-09T19:04:55.691Z,82.43
2023-01-09T19:09:57.603Z,110.95
2023-01-09T19:14:59.691Z,140.02
2023-01-09T19:20:01.842Z,149.07
2023-01-09T19:25:05.149Z,114.23
2023-01-09T19:30:08.132Z,107.20
2023-01-09T19:35:10.186Z,77.60
2023-01-09T19:40:12.650Z,92.68
2023-01-09T19:45:14.741Z,122.93
2023-01-09T19:50:18.422Z,77.40
2023-01-09T20:00:25.104Z,237.73
2023-01-09T20:05:29.928Z,150.50
2023-01-09T20:10:31.943Z,110.50
2023-01-09T20:20:39.211Z,58.22
2023-01-09T20:25:41.282Z,96.43
2023-01-09T20:30:49.213Z,52.70
2023-01-09T20:35:51.256Z,47.70
2023-01-09T20:40:53.547Z,48.65
2023-01-09T20:45:55.640Z,43.42
2023-01-09T20:51:04.048Z,40.63
2023-01-09T20:56:07.634Z,38.78
2023-01-09T21:01:12.593Z,41.28
2023-01-09T21:06:17.150Z,32.55
2023-01-09T21:11:20.644Z,49.78
2023-01-09T21:16:24.859Z,48.08
2023-01-09T21:21:27.681Z,42.33
2023-01-09T21:26:30.903Z,37.40
2023-01-09T21:31:35.836Z,32.20
2023-01-09T21:36:37.826Z,35.53
2023-01-09T21:42:18.384Z,38.22
2023-01-09T21:47:20.268Z,40.30
2023-01-09T21:52:22.338Z,41.45
2023-01-09T21:57:24.276Z,40.70
2023-01-09T22:02:26.212Z,38.65
2023-01-09T22:07:28.094Z,40.83
2023-01-09T22:12:30.028Z,45.42
2023-01-09T22:17:31.939Z,42.67
2023-01-09T22:22:33.962Z,47.53
2023-01-09T22:27:36.596Z,51.22
2023-01-09T22:32:38.753Z,42.53
2023-01-09T22:37:40.649Z,43.67
2023-01-09T22:42:42.582Z,42.58
2023-01-09T22:47:44.523Z,41.58
2023-01-09T22:52:48.439Z,49.70
2023-01-09T22:57:50.606Z,51.00
2023-01-09T23:02:52.628Z,48.60
2023-01-09T23:07:54.912Z,52.88
2023-01-09T23:12:56.875Z,57.33
2023-01-09T23:17:59.123Z,53.72
2023-01-09T23:23:01.131Z,53.75
2023-01-09T23:28:03.589Z,48.13
2023-01-09T23:33:05.447Z,53.47
2023-01-09T23:38:07.390Z,49.13
2023-01-09T23:43:11.129Z,47.80
2023-01-09T23:53:16.756Z,52.05
2023-01-09T23:58:18.662Z,53.22
